sensor_id;sensor_type;location;lat;lon;timestamp;temperature;humidity
39665;DHT22;26679;50.872;4.332;2022-08-19T00:00:26;23.20;99.80
39665;DHT22;26679;50.872;4.332;2022-08-19T00:02:52;23.10;99.90
39665;DHT22;26679;50.872;4.332;2022-08-19T00:05:19;23.10;99.90
39665;DHT22;26679;50.872;4.332;2022-08-19T00:07:44;23.00;99.90
39665;DHT22;26679;50.872;4.332;2022-08-19T00:10:11;23.00;99.90
39665;DHT22;26679;50.872;4.332;2022-08-19T00:12:37;23.00;99.90
39665;DHT22;26679;50.872;4.332;2022-08-19T00:15:04;23.00;99.90
39665;DHT22;26679;50.872;4.332;2022-08-19T00:17:30;23.10;99.90
39665;DHT22;26679;50.872;4.332;2022-08-19T00:19:55;23.10;99.90
39665;DHT22;26679;50.872;4.332;2022-08-19T00:22:21;23.00;99.90
39665;DHT22;26679;50.872;4.332;2022-08-19T00:24:46;23.00;99.90
39665;DHT22;26679;50.872;4.332;2022-08-19T00:27:12;23.10;99.90
39665;DHT22;26679;50.872;4.332;2022-08-19T00:29:38;23.10;99.90
39665;DHT22;26679;50.872;4.332;2022-08-19T00:32:04;23.00;99.90
39665;DHT22;26679;50.872;4.332;2022-08-19T00:34:29;23.00;99.90
39665;DHT22;26679;50.872;4.332;2022-08-19T00:36:55;23.00;99.90
39665;DHT22;26679;50.872;4.332;2022-08-19T00:39:21;22.90;99.90
39665;DHT22;26679;50.872;4.332;2022-08-19T00:41:47;22.70;99.90
39665;DHT22;26679;50.872;4.332;2022-08-19T00:44:16;22.70;99.90
39665;DHT22;26679;50.872;4.332;2022-08-19T00:46:43;22.80;99.90
39665;DHT22;26679;50.872;4.332;2022-08-19T00:49:19;22.70;99.90
39665;DHT22;26679;50.872;4.332;2022-08-19T00:51:46;22.70;99.90
39665;DHT22;26679;50.872;4.332;2022-08-19T00:54:12;22.70;99.90
39665;DHT22;26679;50.872;4.332;2022-08-19T00:56:38;22.70;99.90
39665;DHT22;26679;50.872;4.332;2022-08-19T00:59:03;22.70;99.90
39665;DHT22;26679;50.872;4.332;2022-08-19T01:01:43;22.70;99.90
39665;DHT22;26679;50.872;4.332;2022-08-19T01:04:09;22.70;99.90
39665;DHT22;26679;50.872;4.332;2022-08-19T01:06:35;22.60;99.90
39665;DHT22;26679;50.872;4.332;2022-08-19T01:09:01;22.40;99.90
39665;DHT22;26679;50.872;4.332;2022-08-19T01:11:27;22.40;99.90
39665;DHT22;26679;50.872;4.332;2022-08-19T01:13:53;22.30;99.90
39665;DHT22;26679;50.872;4.332;2022-08-19T01:16:20;22.20;99.90
39665;DHT22;26679;50.872;4.332;2022-08-19T01:18:47;22.10;99.90
39665;DHT22;26679;50.872;4.332;2022-08-19T01:21:18;22.00;99.90
39665;DHT22;26679;50.872;4.332;2022-08-19T01:23:45;21.90;99.90
39665;DHT22;26679;50.872;4.332;2022-08-19T01:26:15;21.90;99.90
39665;DHT22;26679;50.872;4.332;2022-08-19T01:28:41;21.90;99.90
39665;DHT22;26679;50.872;4.332;2022-08-19T01:31:08;21.90;99.90
39665;DHT22;26679;50.872;4.332;2022-08-19T01:33:36;21.90;99.90
39665;DHT22;26679;50.872;4.332;2022-08-19T01:36:12;21.90;99.90
39665;DHT22;26679;50.872;4.332;2022-08-19T01:38:40;21.90;99.90
39665;DHT22;26679;50.872;4.332;2022-08-19T01:41:06;21.80;99.90
39665;DHT22;26679;50.872;4.332;2022-08-19T01:43:32;21.70;99.90
39665;DHT22;26679;50.872;4.332;2022-08-19T01:45:58;21.70;99.90
39665;DHT22;26679;50.872;4.332;2022-08-19T01:48:23;21.50;99.90
39665;DHT22;26679;50.872;4.332;2022-08-19T01:50:49;21.40;99.90
39665;DHT22;26679;50.872;4.332;2022-08-19T01:53:15;21.50;99.90
39665;DHT22;26679;50.872;4.332;2022-08-19T01:55:41;21.40;99.90
39665;DHT22;26679;50.872;4.332;2022-08-19T02:00:44;21.30;99.90
39665;DHT22;26679;50.872;4.332;2022-08-19T02:03:10;21.30;99.90
39665;DHT22;26679;50.872;4.332;2022-08-19T02:05:36;21.20;99.90
39665;DHT22;26679;50.872;4.332;2022-08-19T02:08:02;21.20;99.90
39665;DHT22;26679;50.872;4.332;2022-08-19T02:10:27;21.10;99.90
39665;DHT22;26679;50.872;4.332;2022-08-19T02:12:53;21.00;99.90
39665;DHT22;26679;50.872;4.332;2022-08-19T02:15:19;21.00;99.90
39665;DHT22;26679;50.872;4.332;2022-08-19T02:17:45;21.00;99.90
39665;DHT22;26679;50.872;4.332;2022-08-19T02:20:11;21.00;99.90
39665;DHT22;26679;50.872;4.332;2022-08-19T02:22:37;21.00;99.90
39665;DHT22;26679;50.872;4.332;2022-08-19T02:25:07;20.90;99.90
39665;DHT22;26679;50.872;4.332;2022-08-19T02:27:32;20.80;99.90
39665;DHT22;26679;50.872;4.332;2022-08-19T02:29:59;20.80;99.90
39665;DHT22;26679;50.872;4.332;2022-08-19T02:32:24;20.80;99.90
39665;DHT22;26679;50.872;4.332;2022-08-19T02:34:50;20.80;99.90
39665;DHT22;26679;50.872;4.332;2022-08-19T02:37:15;20.70;99.90
39665;DHT22;26679;50.872;4.332;2022-08-19T02:39:52;20.70;99.90
39665;DHT22;26679;50.872;4.332;2022-08-19T02:42:17;20.60;99.90
39665;DHT22;26679;50.872;4.332;2022-08-19T02:44:43;20.50;99.90
39665;DHT22;26679;50.872;4.332;2022-08-19T02:47:09;20.50;99.90
39665;DHT22;26679;50.872;4.332;2022-08-19T02:49:34;20.60;99.90
39665;DHT22;26679;50.872;4.332;2022-08-19T02:52:01;20.50;99.90
39665;DHT22;26679;50.872;4.332;2022-08-19T02:54:26;20.50;99.90
39665;DHT22;26679;50.872;4.332;2022-08-19T02:56:53;20.40;99.90
39665;DHT22;26679;50.872;4.332;2022-08-19T02:59:18;20.40;99.90
39665;DHT22;26679;50.872;4.332;2022-08-19T03:01:44;20.40;99.90
39665;DHT22;26679;50.872;4.332;2022-08-19T03:04:11;20.30;99.90
39665;DHT22;26679;50.872;4.332;2022-08-19T03:06:38;20.20;99.90
39665;DHT22;26679;50.872;4.332;2022-08-19T03:09:04;20.20;99.90
39665;DHT22;26679;50.872;4.332;2022-08-19T03:11:30;20.10;99.90
39665;DHT22;26679;50.872;4.332;2022-08-19T03:13:56;20.20;99.90
39665;DHT22;26679;50.872;4.332;2022-08-19T03:16:23;20.10;99.90
39665;DHT22;26679;50.872;4.332;2022-08-19T03:18:49;20.10;99.90
39665;DHT22;26679;50.872;4.332;2022-08-19T03:21:15;20.10;99.90
39665;DHT22;26679;50.872;4.332;2022-08-19T03:23:41;20.00;99.90
39665;DHT22;26679;50.872;4.332;2022-08-19T03:26:06;20.00;99.90
39665;DHT22;26679;50.872;4.332;2022-08-19T03:28:32;20.00;99.90
39665;DHT22;26679;50.872;4.332;2022-08-19T03:31:02;19.90;99.90
39665;DHT22;26679;50.872;4.332;2022-08-19T03:33:28;19.90;99.90
39665;DHT22;26679;50.872;4.332;2022-08-19T03:38:31;19.80;99.90
39665;DHT22;26679;50.872;4.332;2022-08-19T03:40:57;19.70;99.90
39665;DHT22;26679;50.872;4.332;2022-08-19T03:43:23;19.60;99.90
39665;DHT22;26679;50.872;4.332;2022-08-19T03:45:48;19.60;99.90
39665;DHT22;26679;50.872;4.332;2022-08-19T03:48:14;19.60;99.90
39665;DHT22;26679;50.872;4.332;2022-08-19T03:50:41;19.60;99.90
39665;DHT22;26679;50.872;4.332;2022-08-19T03:53:07;19.50;99.90
39665;DHT22;26679;50.872;4.332;2022-08-19T03:55:38;19.50;99.90
39665;DHT22;26679;50.872;4.332;2022-08-19T03:58:03;19.50;99.90
39665;DHT22;26679;50.872;4.332;2022-08-19T04:00:29;19.60;99.90
39665;DHT22;26679;50.872;4.332;2022-08-19T04:02:54;19.50;99.90
39665;DHT22;26679;50.872;4.332;2022-08-19T04:05:20;19.50;99.90
39665;DHT22;26679;50.872;4.332;2022-08-19T04:07:45;19.50;99.90
39665;DHT22;26679;50.872;4.332;2022-08-19T04:10:11;19.40;99.90
39665;DHT22;26679;50.872;4.332;2022-08-19T04:12:36;19.30;99.90
39665;DHT22;26679;50.872;4.332;2022-08-19T04:15:02;19.20;99.90
39665;DHT22;26679;50.872;4.332;2022-08-19T04:17:28;19.20;99.90
39665;DHT22;26679;50.872;4.332;2022-08-19T04:19:53;19.20;99.90
39665;DHT22;26679;50.872;4.332;2022-08-19T04:22:19;19.20;99.90
39665;DHT22;26679;50.872;4.332;2022-08-19T04:24:44;19.00;99.90
39665;DHT22;26679;50.872;4.332;2022-08-19T04:27:09;19.00;99.90
39665;DHT22;26679;50.872;4.332;2022-08-19T04:29:35;19.00;99.90
39665;DHT22;26679;50.872;4.332;2022-08-19T04:32:04;19.00;99.90
39665;DHT22;26679;50.872;4.332;2022-08-19T04:34:31;19.00;99.90
39665;DHT22;26679;50.872;4.332;2022-08-19T04:36:57;18.80;99.90
39665;DHT22;26679;50.872;4.332;2022-08-19T04:39:24;18.80;99.90
39665;DHT22;26679;50.872;4.332;2022-08-19T04:42:13;18.80;99.90
39665;DHT22;26679;50.872;4.332;2022-08-19T04:44:50;18.80;99.90
39665;DHT22;26679;50.872;4.332;2022-08-19T04:47:16;18.90;99.90
39665;DHT22;26679;50.872;4.332;2022-08-19T04:49:41;19.00;99.90
39665;DHT22;26679;50.872;4.332;2022-08-19T04:52:07;19.00;99.90
39665;DHT22;26679;50.872;4.332;2022-08-19T04:54:33;18.90;99.90
39665;DHT22;26679;50.872;4.332;2022-08-19T04:56:59;18.90;99.90
39665;DHT22;26679;50.872;4.332;2022-08-19T04:59:24;18.70;99.90
39665;DHT22;26679;50.872;4.332;2022-08-19T05:01:50;18.70;99.90
39665;DHT22;26679;50.872;4.332;2022-08-19T05:04:16;18.80;99.90
39665;DHT22;26679;50.872;4.332;2022-08-19T05:06:42;18.80;99.90
39665;DHT22;26679;50.872;4.332;2022-08-19T05:09:08;18.80;99.90
39665;DHT22;26679;50.872;4.332;2022-08-19T05:11:35;18.90;99.90
39665;DHT22;26679;50.872;4.332;2022-08-19T05:14:02;18.90;99.90
39665;DHT22;26679;50.872;4.332;2022-08-19T05:16:28;18.90;99.90
39665;DHT22;26679;50.872;4.332;2022-08-19T05:18:53;18.90;99.90
39665;DHT22;26679;50.872;4.332;2022-08-19T05:21:30;19.00;99.90
39665;DHT22;26679;50.872;4.332;2022-08-19T05:24:06;18.90;99.90
39665;DHT22;26679;50.872;4.332;2022-08-19T05:26:45;18.90;99.90
39665;DHT22;26679;50.872;4.332;2022-08-19T05:29:11;19.00;99.90
39665;DHT22;26679;50.872;4.332;2022-08-19T05:31:37;19.00;99.90
39665;DHT22;26679;50.872;4.332;2022-08-19T05:34:06;19.00;99.90
39665;DHT22;26679;50.872;4.332;2022-08-19T05:36:40;19.00;99.90
39665;DHT22;26679;50.872;4.332;2022-08-19T05:39:06;19.00;99.90
39665;DHT22;26679;50.872;4.332;2022-08-19T05:41:32;19.10;99.90
39665;DHT22;26679;50.872;4.332;2022-08-19T05:43:58;19.20;99.90
39665;DHT22;26679;50.872;4.332;2022-08-19T05:46:23;19.20;99.90
39665;DHT22;26679;50.872;4.332;2022-08-19T05:48:49;19.30;99.90
39665;DHT22;26679;50.872;4.332;2022-08-19T05:51:15;19.40;99.90
39665;DHT22;26679;50.872;4.332;2022-08-19T05:53:41;19.50;99.90
39665;DHT22;26679;50.872;4.332;2022-08-19T05:56:08;19.40;99.90
39665;DHT22;26679;50.872;4.332;2022-08-19T05:58:35;19.50;99.90
39665;DHT22;26679;50.872;4.332;2022-08-19T06:01:00;19.50;99.90
39665;DHT22;26679;50.872;4.332;2022-08-19T06:03:30;19.50;99.90
39665;DHT22;26679;50.872;4.332;2022-08-19T06:05:57;19.70;99.90
39665;DHT22;26679;50.872;4.332;2022-08-19T06:08:24;19.70;99.90
39665;DHT22;26679;50.872;4.332;2022-08-19T06:10:50;19.80;99.90
39665;DHT22;26679;50.872;4.332;2022-08-19T06:13:15;19.80;99.90
39665;DHT22;26679;50.872;4.332;2022-08-19T06:15:41;19.90;99.90
39665;DHT22;26679;50.872;4.332;2022-08-19T06:18:09;20.00;99.90
39665;DHT22;26679;50.872;4.332;2022-08-19T06:20:34;20.00;99.90
39665;DHT22;26679;50.872;4.332;2022-08-19T06:23:00;20.00;99.90
39665;DHT22;26679;50.872;4.332;2022-08-19T06:25:26;20.00;99.90
39665;DHT22;26679;50.872;4.332;2022-08-19T06:27:51;20.00;99.90
39665;DHT22;26679;50.872;4.332;2022-08-19T06:30:18;20.00;99.90
39665;DHT22;26679;50.872;4.332;2022-08-19T06:32:43;20.10;99.90
39665;DHT22;26679;50.872;4.332;2022-08-19T06:35:09;20.00;99.90
39665;DHT22;26679;50.872;4.332;2022-08-19T06:37:35;20.20;99.90
39665;DHT22;26679;50.872;4.332;2022-08-19T06:40:01;20.30;99.90
39665;DHT22;26679;50.872;4.332;2022-08-19T06:42:26;20.30;99.90
39665;DHT22;26679;50.872;4.332;2022-08-19T06:44:52;20.40;99.90
39665;DHT22;26679;50.872;4.332;2022-08-19T06:47:18;20.40;99.90
39665;DHT22;26679;50.872;4.332;2022-08-19T06:49:45;20.40;99.90
39665;DHT22;26679;50.872;4.332;2022-08-19T06:52:10;20.50;99.90
39665;DHT22;26679;50.872;4.332;2022-08-19T06:54:42;20.60;99.90
39665;DHT22;26679;50.872;4.332;2022-08-19T06:57:08;20.50;99.90
39665;DHT22;26679;50.872;4.332;2022-08-19T06:59:38;20.50;99.90
39665;DHT22;26679;50.872;4.332;2022-08-19T07:02:04;20.60;99.90
39665;DHT22;26679;50.872;4.332;2022-08-19T07:04:33;20.60;99.90
39665;DHT22;26679;50.872;4.332;2022-08-19T07:07:08;20.60;99.90
39665;DHT22;26679;50.872;4.332;2022-08-19T07:09:35;20.60;99.90
39665;DHT22;26679;50.872;4.332;2022-08-19T07:12:04;20.60;99.90
39665;DHT22;26679;50.872;4.332;2022-08-19T07:14:29;20.70;99.90
39665;DHT22;26679;50.872;4.332;2022-08-19T07:16:55;20.80;99.90
39665;DHT22;26679;50.872;4.332;2022-08-19T07:19:22;20.70;99.90
39665;DHT22;26679;50.872;4.332;2022-08-19T07:21:48;20.80;99.90
39665;DHT22;26679;50.872;4.332;2022-08-19T07:24:15;20.80;99.90
39665;DHT22;26679;50.872;4.332;2022-08-19T07:26:41;20.80;99.90
39665;DHT22;26679;50.872;4.332;2022-08-19T07:29:07;20.70;99.90
39665;DHT22;26679;50.872;4.332;2022-08-19T07:31:33;20.80;99.90
39665;DHT22;26679;50.872;4.332;2022-08-19T07:34:06;20.80;99.90
39665;DHT22;26679;50.872;4.332;2022-08-19T07:36:32;20.90;99.90
39665;DHT22;26679;50.872;4.332;2022-08-19T07:38:59;21.10;99.90
39665;DHT22;26679;50.872;4.332;2022-08-19T07:41:25;21.20;99.90
39665;DHT22;26679;50.872;4.332;2022-08-19T07:43:51;21.20;99.90
39665;DHT22;26679;50.872;4.332;2022-08-19T08:07:56;22.20;99.90
39665;DHT22;26679;50.872;4.332;2022-08-19T08:10:32;22.00;99.90
39665;DHT22;26679;50.872;4.332;2022-08-19T08:12:57;22.00;99.90
39665;DHT22;26679;50.872;4.332;2022-08-19T08:15:23;22.00;99.90
39665;DHT22;26679;50.872;4.332;2022-08-19T08:23:41;22.40;99.90
39665;DHT22;26679;50.872;4.332;2022-08-19T08:28:57;22.10;99.90
39665;DHT22;26679;50.872;4.332;2022-08-19T08:31:22;22.10;99.90
39665;DHT22;26679;50.872;4.332;2022-08-19T08:33:50;22.20;99.90
39665;DHT22;26679;50.872;4.332;2022-08-19T08:36:16;22.20;99.90
39665;DHT22;26679;50.872;4.332;2022-08-19T08:38:42;22.10;99.90
39665;DHT22;26679;50.872;4.332;2022-08-19T08:43:47;22.10;99.90
39665;DHT22;26679;50.872;4.332;2022-08-19T08:46:15;22.10;99.90
39665;DHT22;26679;50.872;4.332;2022-08-19T08:51:27;22.20;99.90
39665;DHT22;26679;50.872;4.332;2022-08-19T08:53:54;22.20;99.90
39665;DHT22;26679;50.872;4.332;2022-08-19T08:56:20;22.30;99.90
39665;DHT22;26679;50.872;4.332;2022-08-19T09:32:27;22.70;99.90
39665;DHT22;26679;50.872;4.332;2022-08-19T09:34:53;22.60;99.90
39665;DHT22;26679;50.872;4.332;2022-08-19T09:37:20;22.70;99.90
39665;DHT22;26679;50.872;4.332;2022-08-19T09:39:46;22.80;99.90
39665;DHT22;26679;50.872;4.332;2022-08-19T09:42:11;22.90;99.90
39665;DHT22;26679;50.872;4.332;2022-08-19T09:44:39;23.00;99.90
39665;DHT22;26679;50.872;4.332;2022-08-19T09:47:05;23.00;99.90
39665;DHT22;26679;50.872;4.332;2022-08-19T09:49:30;22.90;99.90
39665;DHT22;26679;50.872;4.332;2022-08-19T09:51:56;22.80;99.90
39665;DHT22;26679;50.872;4.332;2022-08-19T09:54:22;23.00;99.90
39665;DHT22;26679;50.872;4.332;2022-08-19T09:56:48;23.10;99.90
39665;DHT22;26679;50.872;4.332;2022-08-19T09:59:13;23.10;99.90
39665;DHT22;26679;50.872;4.332;2022-08-19T10:01:39;22.90;99.90
39665;DHT22;26679;50.872;4.332;2022-08-19T10:04:05;22.80;99.90
39665;DHT22;26679;50.872;4.332;2022-08-19T10:06:34;22.60;99.90
39665;DHT22;26679;50.872;4.332;2022-08-19T10:09:00;22.60;99.90
39665;DHT22;26679;50.872;4.332;2022-08-19T10:11:25;22.50;99.90
39665;DHT22;26679;50.872;4.332;2022-08-19T10:13:51;22.70;99.90
39665;DHT22;26679;50.872;4.332;2022-08-19T10:16:19;23.00;99.90
39665;DHT22;26679;50.872;4.332;2022-08-19T10:18:47;23.20;99.90
39665;DHT22;26679;50.872;4.332;2022-08-19T10:21:13;23.20;99.90
39665;DHT22;26679;50.872;4.332;2022-08-19T10:23:40;23.20;99.90
39665;DHT22;26679;50.872;4.332;2022-08-19T10:26:09;23.20;99.90
39665;DHT22;26679;50.872;4.332;2022-08-19T10:28:35;23.20;99.90
39665;DHT22;26679;50.872;4.332;2022-08-19T10:31:08;23.10;99.90
39665;DHT22;26679;50.872;4.332;2022-08-19T10:33:36;23.10;99.90
39665;DHT22;26679;50.872;4.332;2022-08-19T10:36:06;23.10;99.90
39665;DHT22;26679;50.872;4.332;2022-08-19T10:38:32;23.10;99.90
39665;DHT22;26679;50.872;4.332;2022-08-19T10:41:06;23.10;99.90
39665;DHT22;26679;50.872;4.332;2022-08-19T10:43:32;23.10;99.90
39665;DHT22;26679;50.872;4.332;2022-08-19T10:45:59;23.10;99.90
39665;DHT22;26679;50.872;4.332;2022-08-19T10:48:25;23.30;99.90
39665;DHT22;26679;50.872;4.332;2022-08-19T10:50:50;23.30;99.90
39665;DHT22;26679;50.872;4.332;2022-08-19T10:53:27;23.40;99.90
39665;DHT22;26679;50.872;4.332;2022-08-19T10:55:52;23.50;99.90
39665;DHT22;26679;50.872;4.332;2022-08-19T10:58:28;23.60;99.90
39665;DHT22;26679;50.872;4.332;2022-08-19T11:00:55;23.60;99.90
39665;DHT22;26679;50.872;4.332;2022-08-19T11:03:21;23.40;99.90
39665;DHT22;26679;50.872;4.332;2022-08-19T11:05:56;23.50;99.90
39665;DHT22;26679;50.872;4.332;2022-08-19T11:08:22;23.30;99.90
39665;DHT22;26679;50.872;4.332;2022-08-19T11:10:50;23.20;99.90
39665;DHT22;26679;50.872;4.332;2022-08-19T11:13:16;23.10;99.90
39665;DHT22;26679;50.872;4.332;2022-08-19T11:15:41;23.30;99.90
39665;DHT22;26679;50.872;4.332;2022-08-19T11:18:07;23.50;99.90
39665;DHT22;26679;50.872;4.332;2022-08-19T11:20:33;23.70;99.90
39665;DHT22;26679;50.872;4.332;2022-08-19T11:22:58;23.90;99.90
39665;DHT22;26679;50.872;4.332;2022-08-19T11:25:24;24.00;99.90
39665;DHT22;26679;50.872;4.332;2022-08-19T11:27:49;23.90;99.90
39665;DHT22;26679;50.872;4.332;2022-08-19T11:30:17;23.70;99.90
39665;DHT22;26679;50.872;4.332;2022-08-19T11:32:42;23.60;99.90
39665;DHT22;26679;50.872;4.332;2022-08-19T11:35:08;23.70;99.90
39665;DHT22;26679;50.872;4.332;2022-08-19T11:37:33;23.70;99.90
39665;DHT22;26679;50.872;4.332;2022-08-19T11:40:03;23.80;99.90
39665;DHT22;26679;50.872;4.332;2022-08-19T11:42:28;23.80;99.90
39665;DHT22;26679;50.872;4.332;2022-08-19T11:45:05;23.90;99.90
39665;DHT22;26679;50.872;4.332;2022-08-19T11:47:31;23.90;99.90
39665;DHT22;26679;50.872;4.332;2022-08-19T11:49:56;24.00;99.90
39665;DHT22;26679;50.872;4.332;2022-08-19T11:52:22;24.10;99.90
39665;DHT22;26679;50.872;4.332;2022-08-19T11:54:47;24.40;99.90
39665;DHT22;26679;50.872;4.332;2022-08-19T11:57:13;24.80;99.90
39665;DHT22;26679;50.872;4.332;2022-08-19T11:59:42;25.20;99.90
39665;DHT22;26679;50.872;4.332;2022-08-19T12:02:07;25.70;99.90
39665;DHT22;26679;50.872;4.332;2022-08-19T12:04:33;26.20;99.90
39665;DHT22;26679;50.872;4.332;2022-08-19T12:06:58;26.40;99.90
39665;DHT22;26679;50.872;4.332;2022-08-19T12:09:24;26.70;99.90
39665;DHT22;26679;50.872;4.332;2022-08-19T12:11:49;26.90;99.90
39665;DHT22;26679;50.872;4.332;2022-08-19T12:14:16;27.00;99.90
39665;DHT22;26679;50.872;4.332;2022-08-19T12:16:43;27.20;99.90
39665;DHT22;26679;50.872;4.332;2022-08-19T12:19:10;27.10;99.90
39665;DHT22;26679;50.872;4.332;2022-08-19T12:21:36;26.80;99.90
39665;DHT22;26679;50.872;4.332;2022-08-19T12:24:02;26.50;99.90
39665;DHT22;26679;50.872;4.332;2022-08-19T12:26:28;26.40;99.90
39665;DHT22;26679;50.872;4.332;2022-08-19T12:28:54;26.30;99.90
39665;DHT22;26679;50.872;4.332;2022-08-19T12:31:20;26.30;99.90
39665;DHT22;26679;50.872;4.332;2022-08-19T12:33:46;26.30;99.90
39665;DHT22;26679;50.872;4.332;2022-08-19T12:36:13;26.00;99.90
39665;DHT22;26679;50.872;4.332;2022-08-19T12:38:39;25.70;99.90
39665;DHT22;26679;50.872;4.332;2022-08-19T12:41:05;25.50;99.90
39665;DHT22;26679;50.872;4.332;2022-08-19T12:43:32;25.80;99.90
39665;DHT22;26679;50.872;4.332;2022-08-19T12:45:58;26.30;99.90
39665;DHT22;26679;50.872;4.332;2022-08-19T12:48:24;26.90;99.90
39665;DHT22;26679;50.872;4.332;2022-08-19T12:50:49;27.30;99.80
39665;DHT22;26679;50.872;4.332;2022-08-19T12:53:15;27.40;99.20
39665;DHT22;26679;50.872;4.332;2022-08-19T12:55:41;27.30;99.00
39665;DHT22;26679;50.872;4.332;2022-08-19T12:58:07;27.30;99.50
39665;DHT22;26679;50.872;4.332;2022-08-19T13:00:33;27.50;98.90
39665;DHT22;26679;50.872;4.332;2022-08-19T13:02:59;28.60;97.40
39665;DHT22;26679;50.872;4.332;2022-08-19T13:05:26;28.80;96.80
39665;DHT22;26679;50.872;4.332;2022-08-19T13:07:52;29.10;95.70
39665;DHT22;26679;50.872;4.332;2022-08-19T13:10:21;28.60;95.90
39665;DHT22;26679;50.872;4.332;2022-08-19T13:12:48;28.30;96.20
39665;DHT22;26679;50.872;4.332;2022-08-19T13:15:14;28.20;96.30
39665;DHT22;26679;50.872;4.332;2022-08-19T13:17:40;27.80;96.90
39665;DHT22;26679;50.872;4.332;2022-08-19T13:20:07;27.60;97.20
39665;DHT22;26679;50.872;4.332;2022-08-19T13:22:33;27.40;97.50
39665;DHT22;26679;50.872;4.332;2022-08-19T13:25:01;27.10;97.80
39665;DHT22;26679;50.872;4.332;2022-08-19T13:27:26;27.00;98.20
39665;DHT22;26679;50.872;4.332;2022-08-19T13:29:52;27.00;98.30
39665;DHT22;26679;50.872;4.332;2022-08-19T13:32:28;26.80;98.50
39665;DHT22;26679;50.872;4.332;2022-08-19T13:35:05;26.90;98.50
39665;DHT22;26679;50.872;4.332;2022-08-19T13:37:31;27.00;98.40
39665;DHT22;26679;50.872;4.332;2022-08-19T13:40:08;27.00;98.40
39665;DHT22;26679;50.872;4.332;2022-08-19T13:42:38;27.20;98.40
39665;DHT22;26679;50.872;4.332;2022-08-19T13:45:04;27.60;97.50
39665;DHT22;26679;50.872;4.332;2022-08-19T13:47:31;27.60;97.30
39665;DHT22;26679;50.872;4.332;2022-08-19T13:49:57;27.40;97.60
39665;DHT22;26679;50.872;4.332;2022-08-19T13:52:22;27.10;98.00
39665;DHT22;26679;50.872;4.332;2022-08-19T13:54:48;26.90;98.30
39665;DHT22;26679;50.872;4.332;2022-08-19T13:57:13;26.70;98.60
39665;DHT22;26679;50.872;4.332;2022-08-19T13:59:39;26.50;98.90
39665;DHT22;26679;50.872;4.332;2022-08-19T14:02:04;26.30;99.30
39665;DHT22;26679;50.872;4.332;2022-08-19T14:04:39;26.30;99.60
39665;DHT22;26679;50.872;4.332;2022-08-19T14:07:05;26.00;99.90
39665;DHT22;26679;50.872;4.332;2022-08-19T14:09:30;25.50;99.90
39665;DHT22;26679;50.872;4.332;2022-08-19T14:11:56;25.00;99.90
39665;DHT22;26679;50.872;4.332;2022-08-19T14:20:27;23.60;99.90
39665;DHT22;26679;50.872;4.332;2022-08-19T14:22:53;23.70;99.90
39665;DHT22;26679;50.872;4.332;2022-08-19T14:25:22;24.00;99.90
39665;DHT22;26679;50.872;4.332;2022-08-19T14:27:48;24.20;99.90
39665;DHT22;26679;50.872;4.332;2022-08-19T14:30:15;24.10;99.90
39665;DHT22;26679;50.872;4.332;2022-08-19T14:32:41;24.20;99.90
39665;DHT22;26679;50.872;4.332;2022-08-19T14:35:08;24.30;99.90
39665;DHT22;26679;50.872;4.332;2022-08-19T14:37:34;24.20;99.90
39665;DHT22;26679;50.872;4.332;2022-08-19T14:40:00;24.10;99.90
39665;DHT22;26679;50.872;4.332;2022-08-19T14:42:26;24.00;99.90
39665;DHT22;26679;50.872;4.332;2022-08-19T14:44:51;23.60;99.90
39665;DHT22;26679;50.872;4.332;2022-08-19T14:47:17;23.30;99.90
39665;DHT22;26679;50.872;4.332;2022-08-19T14:49:42;23.10;99.90
39665;DHT22;26679;50.872;4.332;2022-08-19T14:52:08;23.10;99.90
39665;DHT22;26679;50.872;4.332;2022-08-19T14:54:34;23.20;99.90
39665;DHT22;26679;50.872;4.332;2022-08-19T14:56:59;23.70;99.90
39665;DHT22;26679;50.872;4.332;2022-08-19T14:59:25;24.10;99.90
39665;DHT22;26679;50.872;4.332;2022-08-19T15:01:50;24.80;99.90
39665;DHT22;26679;50.872;4.332;2022-08-19T15:04:16;25.40;99.90
39665;DHT22;26679;50.872;4.332;2022-08-19T15:06:41;26.80;99.90
39665;DHT22;26679;50.872;4.332;2022-08-19T15:09:07;27.50;99.90
39665;DHT22;26679;50.872;4.332;2022-08-19T15:11:33;27.80;99.90
39665;DHT22;26679;50.872;4.332;2022-08-19T15:13:59;27.80;99.90
39665;DHT22;26679;50.872;4.332;2022-08-19T15:16:25;28.30;99.90
39665;DHT22;26679;50.872;4.332;2022-08-19T15:18:52;29.10;99.90
39665;DHT22;26679;50.872;4.332;2022-08-19T15:21:17;28.80;99.40
39665;DHT22;26679;50.872;4.332;2022-08-19T15:23:44;28.20;99.90
39665;DHT22;26679;50.872;4.332;2022-08-19T15:26:09;27.60;99.90
39665;DHT22;26679;50.872;4.332;2022-08-19T15:28:35;27.30;99.90
39665;DHT22;26679;50.872;4.332;2022-08-19T15:31:01;27.00;99.90
39665;DHT22;26679;50.872;4.332;2022-08-19T15:33:27;26.60;99.90
39665;DHT22;26679;50.872;4.332;2022-08-19T15:35:52;26.50;99.90
39665;DHT22;26679;50.872;4.332;2022-08-19T15:38:19;26.30;99.90
39665;DHT22;26679;50.872;4.332;2022-08-19T15:40:47;26.00;99.90
39665;DHT22;26679;50.872;4.332;2022-08-19T15:43:13;25.70;99.90
39665;DHT22;26679;50.872;4.332;2022-08-19T15:45:40;25.60;99.90
39665;DHT22;26679;50.872;4.332;2022-08-19T15:48:06;25.40;99.90
39665;DHT22;26679;50.872;4.332;2022-08-19T15:50:31;25.30;99.90
39665;DHT22;26679;50.872;4.332;2022-08-19T15:52:58;25.00;99.90
39665;DHT22;26679;50.872;4.332;2022-08-19T15:55:26;24.70;99.90
39665;DHT22;26679;50.872;4.332;2022-08-19T15:57:52;24.30;99.90
39665;DHT22;26679;50.872;4.332;2022-08-19T16:00:28;23.80;99.90
39665;DHT22;26679;50.872;4.332;2022-08-19T16:03:05;23.60;99.90
39665;DHT22;26679;50.872;4.332;2022-08-19T16:05:41;23.30;99.90
39665;DHT22;26679;50.872;4.332;2022-08-19T16:08:17;23.20;99.90
39665;DHT22;26679;50.872;4.332;2022-08-19T16:10:43;23.00;99.90
39665;DHT22;26679;50.872;4.332;2022-08-19T16:13:09;23.10;99.90
39665;DHT22;26679;50.872;4.332;2022-08-19T16:15:35;23.00;99.90
39665;DHT22;26679;50.872;4.332;2022-08-19T16:18:00;22.90;99.90
39665;DHT22;26679;50.872;4.332;2022-08-19T16:20:27;22.90;99.90
39665;DHT22;26679;50.872;4.332;2022-08-19T16:22:53;23.10;99.90
39665;DHT22;26679;50.872;4.332;2022-08-19T16:25:19;23.10;99.90
39665;DHT22;26679;50.872;4.332;2022-08-19T16:27:44;23.10;99.90
39665;DHT22;26679;50.872;4.332;2022-08-19T16:30:10;23.20;99.90
39665;DHT22;26679;50.872;4.332;2022-08-19T16:32:41;23.40;99.90
39665;DHT22;26679;50.872;4.332;2022-08-19T16:35:06;23.20;99.90
39665;DHT22;26679;50.872;4.332;2022-08-19T16:37:32;23.20;99.90
39665;DHT22;26679;50.872;4.332;2022-08-19T16:39:58;23.20;99.90
39665;DHT22;26679;50.872;4.332;2022-08-19T16:42:23;23.20;99.90
39665;DHT22;26679;50.872;4.332;2022-08-19T16:44:49;23.20;99.90
39665;DHT22;26679;50.872;4.332;2022-08-19T16:47:14;23.10;99.90